sensor_id;sensor_type;location;lat;lon;timestamp;temperature;humidity
18337;DHT22;9294;51.106;7.028;2022-11-15T00:02:02;19.30;98.80
18337;DHT22;9294;51.106;7.028;2022-11-15T00:04:30;19.30;98.70
18337;DHT22;9294;51.106;7.028;2022-11-15T00:06:58;19.40;98.90
18337;DHT22;9294;51.106;7.028;2022-11-15T00:09:24;19.40;98.90
18337;DHT22;9294;51.106;7.028;2022-11-15T00:11:51;19.40;98.70
18337;DHT22;9294;51.106;7.028;2022-11-15T00:14:18;19.30;98.80
18337;DHT22;9294;51.106;7.028;2022-11-15T00:16:45;19.30;98.90
18337;DHT22;9294;51.106;7.028;2022-11-15T00:19:11;19.30;98.90
18337;DHT22;9294;51.106;7.028;2022-11-15T00:21:39;19.30;98.90
18337;DHT22;9294;51.106;7.028;2022-11-15T00:24:07;19.30;98.90
18337;DHT22;9294;51.106;7.028;2022-11-15T00:26:34;19.30;99.10
18337;DHT22;9294;51.106;7.028;2022-11-15T00:29:00;19.30;99.00
18337;DHT22;9294;51.106;7.028;2022-11-15T00:31:27;19.20;99.10
18337;DHT22;9294;51.106;7.028;2022-11-15T00:33:53;19.30;99.10
18337;DHT22;9294;51.106;7.028;2022-11-15T00:36:20;19.30;99.10
18337;DHT22;9294;51.106;7.028;2022-11-15T00:38:47;19.20;99.10
18337;DHT22;9294;51.106;7.028;2022-11-15T00:41:15;19.20;99.10
18337;DHT22;9294;51.106;7.028;2022-11-15T00:43:41;19.20;99.10
18337;DHT22;9294;51.106;7.028;2022-11-15T00:46:09;19.20;99.10
18337;DHT22;9294;51.106;7.028;2022-11-15T00:48:36;19.30;99.10
18337;DHT22;9294;51.106;7.028;2022-11-15T00:51:03;19.30;99.00
18337;DHT22;9294;51.106;7.028;2022-11-15T00:53:30;19.30;99.00
18337;DHT22;9294;51.106;7.028;2022-11-15T00:55:56;19.30;99.00
18337;DHT22;9294;51.106;7.028;2022-11-15T00:58:24;19.30;98.90
18337;DHT22;9294;51.106;7.028;2022-11-15T01:00:51;19.30;98.90
18337;DHT22;9294;51.106;7.028;2022-11-15T01:03:18;19.30;99.00
18337;DHT22;9294;51.106;7.028;2022-11-15T01:05:44;19.20;99.00
18337;DHT22;9294;51.106;7.028;2022-11-15T01:08:12;19.30;99.10
18337;DHT22;9294;51.106;7.028;2022-11-15T01:10:39;19.20;99.10
18337;DHT22;9294;51.106;7.028;2022-11-15T01:13:06;19.20;99.20
18337;DHT22;9294;51.106;7.028;2022-11-15T01:15:34;19.20;99.20
18337;DHT22;9294;51.106;7.028;2022-11-15T01:18:00;19.30;99.00
18337;DHT22;9294;51.106;7.028;2022-11-15T01:20:27;19.30;99.30
18337;DHT22;9294;51.106;7.028;2022-11-15T01:22:54;19.30;98.90
18337;DHT22;9294;51.106;7.028;2022-11-15T01:25:20;19.30;98.90
18337;DHT22;9294;51.106;7.028;2022-11-15T01:27:47;19.40;98.80
18337;DHT22;9294;51.106;7.028;2022-11-15T01:30:14;19.40;98.70
18337;DHT22;9294;51.106;7.028;2022-11-15T01:32:42;19.40;98.70
18337;DHT22;9294;51.106;7.028;2022-11-15T01:35:09;19.50;98.70
18337;DHT22;9294;51.106;7.028;2022-11-15T01:37:35;19.40;98.70
18337;DHT22;9294;51.106;7.028;2022-11-15T01:40:03;19.40;98.60
18337;DHT22;9294;51.106;7.028;2022-11-15T01:42:30;19.40;98.70
18337;DHT22;9294;51.106;7.028;2022-11-15T01:44:56;19.40;98.60
18337;DHT22;9294;51.106;7.028;2022-11-15T01:47:24;19.50;98.50
18337;DHT22;9294;51.106;7.028;2022-11-15T01:49:55;19.50;98.50
18337;DHT22;9294;51.106;7.028;2022-11-15T01:52:25;19.50;98.50
18337;DHT22;9294;51.106;7.028;2022-11-15T01:54:56;19.40;98.50
18337;DHT22;9294;51.106;7.028;2022-11-15T01:57:24;19.50;98.50
18337;DHT22;9294;51.106;7.028;2022-11-15T01:59:51;19.40;98.40
18337;DHT22;9294;51.106;7.028;2022-11-15T02:02:18;19.50;98.40
18337;DHT22;9294;51.106;7.028;2022-11-15T02:04:46;19.50;98.30
18337;DHT22;9294;51.106;7.028;2022-11-15T02:07:17;19.50;98.30
18337;DHT22;9294;51.106;7.028;2022-11-15T02:09:44;19.50;98.30
18337;DHT22;9294;51.106;7.028;2022-11-15T02:12:13;19.50;98.20
18337;DHT22;9294;51.106;7.028;2022-11-15T02:14:43;19.50;98.20
18337;DHT22;9294;51.106;7.028;2022-11-15T02:17:21;19.50;98.30
18337;DHT22;9294;51.106;7.028;2022-11-15T02:20:28;19.50;98.30
18337;DHT22;9294;51.106;7.028;2022-11-15T02:23:15;19.50;98.30
18337;DHT22;9294;51.106;7.028;2022-11-15T02:25:57;19.50;98.30
18337;DHT22;9294;51.106;7.028;2022-11-15T02:28:43;19.50;98.40
18337;DHT22;9294;51.106;7.028;2022-11-15T02:31:17;19.50;98.40
18337;DHT22;9294;51.106;7.028;2022-11-15T02:33:54;19.60;98.30
18337;DHT22;9294;51.106;7.028;2022-11-15T02:36:33;19.50;98.10
18337;DHT22;9294;51.106;7.028;2022-11-15T02:39:04;19.50;98.20
18337;DHT22;9294;51.106;7.028;2022-11-15T02:41:40;19.50;98.20
18337;DHT22;9294;51.106;7.028;2022-11-15T02:44:13;19.50;98.30
18337;DHT22;9294;51.106;7.028;2022-11-15T02:46:45;19.50;98.20
18337;DHT22;9294;51.106;7.028;2022-11-15T02:49:34;19.50;98.20
18337;DHT22;9294;51.106;7.028;2022-11-15T02:52:01;19.40;98.20
18337;DHT22;9294;51.106;7.028;2022-11-15T02:54:30;19.50;98.20
18337;DHT22;9294;51.106;7.028;2022-11-15T02:57:01;19.50;98.20
18337;DHT22;9294;51.106;7.028;2022-11-15T03:00:00;19.50;98.20
18337;DHT22;9294;51.106;7.028;2022-11-15T03:05:28;19.40;98.20
18337;DHT22;9294;51.106;7.028;2022-11-15T03:08:05;19.50;98.30
18337;DHT22;9294;51.106;7.028;2022-11-15T03:10:41;19.50;98.20
18337;DHT22;9294;51.106;7.028;2022-11-15T03:13:16;19.50;98.20
18337;DHT22;9294;51.106;7.028;2022-11-15T03:15:47;19.40;98.20
18337;DHT22;9294;51.106;7.028;2022-11-15T03:18:21;19.50;98.20
18337;DHT22;9294;51.106;7.028;2022-11-15T03:20:50;19.40;98.20
18337;DHT22;9294;51.106;7.028;2022-11-15T03:23:18;19.40;98.20
18337;DHT22;9294;51.106;7.028;2022-11-15T03:25:47;19.50;98.20
18337;DHT22;9294;51.106;7.028;2022-11-15T03:28:20;19.40;98.20
18337;DHT22;9294;51.106;7.028;2022-11-15T03:30:49;19.40;98.30
18337;DHT22;9294;51.106;7.028;2022-11-15T03:33:16;19.40;98.20
18337;DHT22;9294;51.106;7.028;2022-11-15T03:35:46;19.50;98.20
18337;DHT22;9294;51.106;7.028;2022-11-15T03:38:16;19.50;98.00
18337;DHT22;9294;51.106;7.028;2022-11-15T03:40:51;19.40;98.10
18337;DHT22;9294;51.106;7.028;2022-11-15T03:43:24;19.50;98.10
18337;DHT22;9294;51.106;7.028;2022-11-15T03:45:56;19.50;98.00
18337;DHT22;9294;51.106;7.028;2022-11-15T03:48:25;19.50;97.90
18337;DHT22;9294;51.106;7.028;2022-11-15T03:50:55;19.50;98.00
18337;DHT22;9294;51.106;7.028;2022-11-15T03:53:22;19.50;98.00
18337;DHT22;9294;51.106;7.028;2022-11-15T03:55:49;19.50;97.80
18337;DHT22;9294;51.106;7.028;2022-11-15T03:58:15;19.50;97.80
18337;DHT22;9294;51.106;7.028;2022-11-15T04:00:42;19.60;97.70
18337;DHT22;9294;51.106;7.028;2022-11-15T04:03:09;19.50;97.70
18337;DHT22;9294;51.106;7.028;2022-11-15T04:05:36;19.50;97.80
18337;DHT22;9294;51.106;7.028;2022-11-15T04:08:04;19.50;97.80
18337;DHT22;9294;51.106;7.028;2022-11-15T04:10:30;19.50;97.90
18337;DHT22;9294;51.106;7.028;2022-11-15T04:12:57;19.40;97.90
18337;DHT22;9294;51.106;7.028;2022-11-15T04:15:24;19.40;97.90
18337;DHT22;9294;51.106;7.028;2022-11-15T04:17:52;19.50;97.80
18337;DHT22;9294;51.106;7.028;2022-11-15T04:20:20;19.50;97.80
18337;DHT22;9294;51.106;7.028;2022-11-15T04:23:20;19.50;97.90
18337;DHT22;9294;51.106;7.028;2022-11-15T04:26:06;19.50;97.70
18337;DHT22;9294;51.106;7.028;2022-11-15T04:28:33;19.50;97.70
18337;DHT22;9294;51.106;7.028;2022-11-15T04:31:00;19.50;97.70
18337;DHT22;9294;51.106;7.028;2022-11-15T04:33:27;19.50;97.70
18337;DHT22;9294;51.106;7.028;2022-11-15T04:35:53;19.50;97.50
18337;DHT22;9294;51.106;7.028;2022-11-15T04:38:36;19.50;97.50
18337;DHT22;9294;51.106;7.028;2022-11-15T04:41:02;19.60;97.60
18337;DHT22;9294;51.106;7.028;2022-11-15T04:43:29;19.50;97.70
18337;DHT22;9294;51.106;7.028;2022-11-15T04:45:56;19.50;97.90
18337;DHT22;9294;51.106;7.028;2022-11-15T04:48:23;19.30;98.40
18337;DHT22;9294;51.106;7.028;2022-11-15T04:50:49;19.20;98.70
18337;DHT22;9294;51.106;7.028;2022-11-15T04:53:16;19.10;99.10
18337;DHT22;9294;51.106;7.028;2022-11-15T04:55:46;19.10;99.10
18337;DHT22;9294;51.106;7.028;2022-11-15T04:58:12;19.40;98.90
18337;DHT22;9294;51.106;7.028;2022-11-15T05:00:39;19.50;98.60
18337;DHT22;9294;51.106;7.028;2022-11-15T05:03:06;19.60;98.10
18337;DHT22;9294;51.106;7.028;2022-11-15T05:05:50;19.70;98.00
18337;DHT22;9294;51.106;7.028;2022-11-15T05:08:17;19.70;97.60
18337;DHT22;9294;51.106;7.028;2022-11-15T05:10:45;19.70;97.40
18337;DHT22;9294;51.106;7.028;2022-11-15T05:13:11;19.90;97.60
18337;DHT22;9294;51.106;7.028;2022-11-15T05:15:38;20.00;97.30
18337;DHT22;9294;51.106;7.028;2022-11-15T05:18:05;20.00;97.30
18337;DHT22;9294;51.106;7.028;2022-11-15T05:20:32;20.00;97.20
18337;DHT22;9294;51.106;7.028;2022-11-15T05:22:58;20.10;97.00
18337;DHT22;9294;51.106;7.028;2022-11-15T05:25:25;20.10;96.90
18337;DHT22;9294;51.106;7.028;2022-11-15T05:27:53;20.10;97.20
18337;DHT22;9294;51.106;7.028;2022-11-15T05:30:20;20.10;96.90
18337;DHT22;9294;51.106;7.028;2022-11-15T05:32:47;20.10;96.90
18337;DHT22;9294;51.106;7.028;2022-11-15T05:35:18;20.00;97.10
18337;DHT22;9294;51.106;7.028;2022-11-15T05:37:46;20.10;97.00
18337;DHT22;9294;51.106;7.028;2022-11-15T05:40:13;20.20;96.80
18337;DHT22;9294;51.106;7.028;2022-11-15T05:42:39;20.10;96.90
18337;DHT22;9294;51.106;7.028;2022-11-15T05:45:08;20.10;96.90
18337;DHT22;9294;51.106;7.028;2022-11-15T05:47:36;20.10;96.80
18337;DHT22;9294;51.106;7.028;2022-11-15T05:50:06;20.20;96.80
18337;DHT22;9294;51.106;7.028;2022-11-15T05:52:35;20.10;96.80
18337;DHT22;9294;51.106;7.028;2022-11-15T05:55:03;20.20;96.70
18337;DHT22;9294;51.106;7.028;2022-11-15T05:57:31;20.20;96.70
18337;DHT22;9294;51.106;7.028;2022-11-15T05:59:58;20.10;96.70
18337;DHT22;9294;51.106;7.028;2022-11-15T06:02:26;20.20;96.70
18337;DHT22;9294;51.106;7.028;2022-11-15T06:04:53;20.20;96.70
18337;DHT22;9294;51.106;7.028;2022-11-15T06:07:19;20.20;96.70
18337;DHT22;9294;51.106;7.028;2022-11-15T06:09:46;20.30;96.60
18337;DHT22;9294;51.106;7.028;2022-11-15T06:12:13;20.20;96.50
18337;DHT22;9294;51.106;7.028;2022-11-15T06:14:40;20.30;96.70
18337;DHT22;9294;51.106;7.028;2022-11-15T06:17:07;20.10;96.90
18337;DHT22;9294;51.106;7.028;2022-11-15T06:19:35;20.20;96.90
18337;DHT22;9294;51.106;7.028;2022-11-15T06:22:01;20.00;97.00
18337;DHT22;9294;51.106;7.028;2022-11-15T06:24:28;20.10;97.50
18337;DHT22;9294;51.106;7.028;2022-11-15T06:26:55;20.10;97.20
18337;DHT22;9294;51.106;7.028;2022-11-15T06:29:23;20.00;97.30
18337;DHT22;9294;51.106;7.028;2022-11-15T06:31:49;20.00;97.40
18337;DHT22;9294;51.106;7.028;2022-11-15T06:34:16;20.00;97.40
18337;DHT22;9294;51.106;7.028;2022-11-15T06:36:44;20.00;97.40
18337;DHT22;9294;51.106;7.028;2022-11-15T06:39:10;19.90;97.40
18337;DHT22;9294;51.106;7.028;2022-11-15T06:41:37;19.90;97.70
18337;DHT22;9294;51.106;7.028;2022-11-15T06:44:04;19.80;97.80
18337;DHT22;9294;51.106;7.028;2022-11-15T06:46:30;19.70;98.00
18337;DHT22;9294;51.106;7.028;2022-11-15T06:48:57;19.70;98.10
18337;DHT22;9294;51.106;7.028;2022-11-15T06:51:24;19.70;98.10
18337;DHT22;9294;51.106;7.028;2022-11-15T06:53:52;19.70;98.20
18337;DHT22;9294;51.106;7.028;2022-11-15T06:56:18;19.70;98.30
18337;DHT22;9294;51.106;7.028;2022-11-15T06:58:45;19.60;98.50
18337;DHT22;9294;51.106;7.028;2022-11-15T07:01:12;19.60;98.50
18337;DHT22;9294;51.106;7.028;2022-11-15T07:03:40;19.60;98.60
18337;DHT22;9294;51.106;7.028;2022-11-15T07:06:08;19.60;98.60
18337;DHT22;9294;51.106;7.028;2022-11-15T07:08:35;19.50;98.70
18337;DHT22;9294;51.106;7.028;2022-11-15T07:11:05;19.50;98.90
18337;DHT22;9294;51.106;7.028;2022-11-15T07:13:33;19.50;98.80
18337;DHT22;9294;51.106;7.028;2022-11-15T07:16:02;19.50;99.00
18337;DHT22;9294;51.106;7.028;2022-11-15T07:18:29;19.50;99.00
18337;DHT22;9294;51.106;7.028;2022-11-15T07:21:00;19.50;99.00
18337;DHT22;9294;51.106;7.028;2022-11-15T07:23:27;19.50;99.00
18337;DHT22;9294;51.106;7.028;2022-11-15T07:25:55;19.50;98.90
18337;DHT22;9294;51.106;7.028;2022-11-15T07:28:23;19.40;99.00
18337;DHT22;9294;51.106;7.028;2022-11-15T07:30:50;19.50;99.10
18337;DHT22;9294;51.106;7.028;2022-11-15T07:33:17;19.40;99.20
18337;DHT22;9294;51.106;7.028;2022-11-15T07:35:43;19.50;99.30
18337;DHT22;9294;51.106;7.028;2022-11-15T07:38:12;19.40;99.40
18337;DHT22;9294;51.106;7.028;2022-11-15T07:40:40;19.40;99.20
18337;DHT22;9294;51.106;7.028;2022-11-15T07:43:07;19.40;99.30
18337;DHT22;9294;51.106;7.028;2022-11-15T07:45:40;19.50;99.30
18337;DHT22;9294;51.106;7.028;2022-11-15T07:48:07;19.50;99.30
18337;DHT22;9294;51.106;7.028;2022-11-15T07:50:33;19.50;99.30
18337;DHT22;9294;51.106;7.028;2022-11-15T07:53:00;19.50;99.30
18337;DHT22;9294;51.106;7.028;2022-11-15T07:55:27;19.40;99.30
18337;DHT22;9294;51.106;7.028;2022-11-15T07:58:00;19.40;99.60
18337;DHT22;9294;51.106;7.028;2022-11-15T08:00:26;19.50;99.40
18337;DHT22;9294;51.106;7.028;2022-11-15T08:03:01;19.40;99.30
18337;DHT22;9294;51.106;7.028;2022-11-15T08:05:28;19.50;99.20
18337;DHT22;9294;51.106;7.028;2022-11-15T08:07:55;19.50;99.40
18337;DHT22;9294;51.106;7.028;2022-11-15T08:10:21;19.40;99.20
18337;DHT22;9294;51.106;7.028;2022-11-15T08:12:54;19.40;99.20
18337;DHT22;9294;51.106;7.028;2022-11-15T08:15:22;19.40;99.40
18337;DHT22;9294;51.106;7.028;2022-11-15T08:17:55;19.40;99.40
18337;DHT22;9294;51.106;7.028;2022-11-15T08:20:21;19.50;99.30
18337;DHT22;9294;51.106;7.028;2022-11-15T08:22:48;19.40;99.50
18337;DHT22;9294;51.106;7.028;2022-11-15T08:25:15;19.40;99.50
18337;DHT22;9294;51.106;7.028;2022-11-15T08:27:42;19.40;99.50
18337;DHT22;9294;51.106;7.028;2022-11-15T08:30:09;19.40;99.50
18337;DHT22;9294;51.106;7.028;2022-11-15T08:32:36;19.40;99.60
18337;DHT22;9294;51.106;7.028;2022-11-15T08:35:05;19.40;99.60
18337;DHT22;9294;51.106;7.028;2022-11-15T08:37:32;19.30;99.70
18337;DHT22;9294;51.106;7.028;2022-11-15T08:39:59;19.30;99.50
18337;DHT22;9294;51.106;7.028;2022-11-15T08:42:25;19.30;99.50
18337;DHT22;9294;51.106;7.028;2022-11-15T08:44:52;19.30;99.60
18337;DHT22;9294;51.106;7.028;2022-11-15T08:47:19;19.30;99.70
18337;DHT22;9294;51.106;7.028;2022-11-15T08:49:45;19.30;99.70
18337;DHT22;9294;51.106;7.028;2022-11-15T08:52:13;19.30;99.60
18337;DHT22;9294;51.106;7.028;2022-11-15T08:54:40;19.30;99.80
18337;DHT22;9294;51.106;7.028;2022-11-15T08:57:07;19.30;99.90
18337;DHT22;9294;51.106;7.028;2022-11-15T08:59:34;19.40;99.60
18337;DHT22;9294;51.106;7.028;2022-11-15T09:02:01;19.50;99.60
18337;DHT22;9294;51.106;7.028;2022-11-15T09:04:28;19.70;98.90
18337;DHT22;9294;51.106;7.028;2022-11-15T09:06:55;19.80;98.60
18337;DHT22;9294;51.106;7.028;2022-11-15T09:09:23;19.80;98.30
18337;DHT22;9294;51.106;7.028;2022-11-15T09:11:50;19.90;98.00
18337;DHT22;9294;51.106;7.028;2022-11-15T09:14:17;20.00;97.90
18337;DHT22;9294;51.106;7.028;2022-11-15T09:16:43;20.00;97.60
18337;DHT22;9294;51.106;7.028;2022-11-15T09:19:10;20.20;97.60
18337;DHT22;9294;51.106;7.028;2022-11-15T09:21:36;20.20;97.30
18337;DHT22;9294;51.106;7.028;2022-11-15T09:24:03;20.10;97.30
18337;DHT22;9294;51.106;7.028;2022-11-15T09:26:32;20.20;97.40
18337;DHT22;9294;51.106;7.028;2022-11-15T09:28:58;20.20;97.30
18337;DHT22;9294;51.106;7.028;2022-11-15T09:31:26;20.20;97.20
18337;DHT22;9294;51.106;7.028;2022-11-15T09:33:54;20.30;97.10
18337;DHT22;9294;51.106;7.028;2022-11-15T09:36:21;20.30;97.00
18337;DHT22;9294;51.106;7.028;2022-11-15T09:38:48;20.20;97.10
18337;DHT22;9294;51.106;7.028;2022-11-15T09:44:35;20.20;97.10
18337;DHT22;9294;51.106;7.028;2022-11-15T09:47:28;20.30;97.00
18337;DHT22;9294;51.106;7.028;2022-11-15T09:49:59;20.40;97.00
18337;DHT22;9294;51.106;7.028;2022-11-15T09:52:27;20.20;96.90
18337;DHT22;9294;51.106;7.028;2022-11-15T09:54:54;20.20;97.20
18337;DHT22;9294;51.106;7.028;2022-11-15T09:57:27;20.30;97.00
18337;DHT22;9294;51.106;7.028;2022-11-15T10:00:06;20.30;96.90
18337;DHT22;9294;51.106;7.028;2022-11-15T10:02:53;20.30;96.90
18337;DHT22;9294;51.106;7.028;2022-11-15T10:05:24;20.30;97.00
18337;DHT22;9294;51.106;7.028;2022-11-15T10:07:58;20.30;97.00
18337;DHT22;9294;51.106;7.028;2022-11-15T10:10:32;20.20;97.20
18337;DHT22;9294;51.106;7.028;2022-11-15T10:13:03;20.20;97.20
18337;DHT22;9294;51.106;7.028;2022-11-15T10:15:31;20.20;97.20
18337;DHT22;9294;51.106;7.028;2022-11-15T10:18:06;20.20;97.20
18337;DHT22;9294;51.106;7.028;2022-11-15T10:20:41;20.20;97.30
18337;DHT22;9294;51.106;7.028;2022-11-15T10:23:11;20.00;97.60
18337;DHT22;9294;51.106;7.028;2022-11-15T10:25:39;20.10;97.50
18337;DHT22;9294;51.106;7.028;2022-11-15T10:28:11;20.00;97.90
18337;DHT22;9294;51.106;7.028;2022-11-15T10:30:42;20.00;97.80
18337;DHT22;9294;51.106;7.028;2022-11-15T10:33:20;20.00;97.80
18337;DHT22;9294;51.106;7.028;2022-11-15T10:35:48;20.00;98.00
18337;DHT22;9294;51.106;7.028;2022-11-15T10:38:17;20.00;97.80
18337;DHT22;9294;51.106;7.028;2022-11-15T10:40:44;20.00;97.90
18337;DHT22;9294;51.106;7.028;2022-11-15T10:43:16;19.90;97.90
18337;DHT22;9294;51.106;7.028;2022-11-15T10:45:45;19.90;98.20
18337;DHT22;9294;51.106;7.028;2022-11-15T10:48:23;19.80;98.20
18337;DHT22;9294;51.106;7.028;2022-11-15T10:50:52;20.00;98.00
18337;DHT22;9294;51.106;7.028;2022-11-15T10:53:31;20.00;97.90
18337;DHT22;9294;51.106;7.028;2022-11-15T10:56:03;20.00;98.10
18337;DHT22;9294;51.106;7.028;2022-11-15T10:58:37;20.10;98.00
18337;DHT22;9294;51.106;7.028;2022-11-15T11:01:15;20.00;98.10
18337;DHT22;9294;51.106;7.028;2022-11-15T11:03:43;19.80;98.10
18337;DHT22;9294;51.106;7.028;2022-11-15T11:06:12;19.70;98.60
18337;DHT22;9294;51.106;7.028;2022-11-15T11:08:39;19.50;92.80
18337;DHT22;9294;51.106;7.028;2022-11-15T11:11:07;19.10;88.90
18337;DHT22;9294;51.106;7.028;2022-11-15T11:13:35;18.60;90.20
18337;DHT22;9294;51.106;7.028;2022-11-15T11:16:33;18.30;90.20
18337;DHT22;9294;51.106;7.028;2022-11-15T11:21:57;18.30;84.60
18337;DHT22;9294;51.106;7.028;2022-11-15T11:27:11;18.80;90.50
18337;DHT22;9294;51.106;7.028;2022-11-15T11:29:56;19.20;92.20
18337;DHT22;9294;51.106;7.028;2022-11-15T11:32:36;19.50;92.40
18337;DHT22;9294;51.106;7.028;2022-11-15T11:37:43;19.80;92.40
18337;DHT22;9294;51.106;7.028;2022-11-15T11:40:20;19.90;92.60
18337;DHT22;9294;51.106;7.028;2022-11-15T11:42:54;19.90;93.10
18337;DHT22;9294;51.106;7.028;2022-11-15T11:45:36;19.80;93.50
18337;DHT22;9294;51.106;7.028;2022-11-15T11:50:38;20.00;93.40
18337;DHT22;9294;51.106;7.028;2022-11-15T11:53:09;20.20;93.80
18337;DHT22;9294;51.106;7.028;2022-11-15T11:55:39;20.40;93.80
18337;DHT22;9294;51.106;7.028;2022-11-15T11:58:14;20.40;94.10
18337;DHT22;9294;51.106;7.028;2022-11-15T12:00:46;20.40;94.20
18337;DHT22;9294;51.106;7.028;2022-11-15T12:03:21;20.40;94.50
18337;DHT22;9294;51.106;7.028;2022-11-15T12:05:54;20.30;94.50
18337;DHT22;9294;51.106;7.028;2022-11-15T12:08:32;20.40;94.70
18337;DHT22;9294;51.106;7.028;2022-11-15T12:11:08;20.40;94.80
18337;DHT22;9294;51.106;7.028;2022-11-15T12:13:36;20.40;95.00
18337;DHT22;9294;51.106;7.028;2022-11-15T12:16:10;20.40;95.00
18337;DHT22;9294;51.106;7.028;2022-11-15T12:18:41;20.40;95.10
18337;DHT22;9294;51.106;7.028;2022-11-15T12:21:15;20.30;95.30
18337;DHT22;9294;51.106;7.028;2022-11-15T12:23:47;20.30;95.30
18337;DHT22;9294;51.106;7.028;2022-11-15T12:26:17;20.30;95.40
18337;DHT22;9294;51.106;7.028;2022-11-15T12:28:49;20.40;95.60
18337;DHT22;9294;51.106;7.028;2022-11-15T12:31:22;20.40;95.60
18337;DHT22;9294;51.106;7.028;2022-11-15T12:33:55;20.40;95.70
18337;DHT22;9294;51.106;7.028;2022-11-15T12:36:37;20.40;95.70
18337;DHT22;9294;51.106;7.028;2022-11-15T12:39:05;20.30;95.80
18337;DHT22;9294;51.106;7.028;2022-11-15T12:41:33;20.30;95.70
18337;DHT22;9294;51.106;7.028;2022-11-15T12:44:00;20.40;95.50
18337;DHT22;9294;51.106;7.028;2022-11-15T12:46:59;20.40;95.50
18337;DHT22;9294;51.106;7.028;2022-11-15T12:49:47;20.60;95.10
18337;DHT22;9294;51.106;7.028;2022-11-15T12:52:15;20.50;94.90
18337;DHT22;9294;51.106;7.028;2022-11-15T12:54:59;20.40;95.20
18337;DHT22;9294;51.106;7.028;2022-11-15T12:57:33;20.60;95.30
18337;DHT22;9294;51.106;7.028;2022-11-15T13:00:01;20.70;95.00
18337;DHT22;9294;51.106;7.028;2022-11-15T13:02:33;20.70;95.20
18337;DHT22;9294;51.106;7.028;2022-11-15T14:07:22;20.80;94.50
18337;DHT22;9294;51.106;7.028;2022-11-15T14:09:49;20.80;95.10
18337;DHT22;9294;51.106;7.028;2022-11-15T14:12:24;20.80;95.30
18337;DHT22;9294;51.106;7.028;2022-11-15T14:14:51;20.80;95.70
18337;DHT22;9294;51.106;7.028;2022-11-15T14:17:20;20.90;95.60
18337;DHT22;9294;51.106;7.028;2022-11-15T14:19:50;20.90;95.40
18337;DHT22;9294;51.106;7.028;2022-11-15T14:22:20;20.90;95.30
18337;DHT22;9294;51.106;7.028;2022-11-15T14:25:05;20.90;95.40
18337;DHT22;9294;51.106;7.028;2022-11-15T14:27:33;20.90;95.40
18337;DHT22;9294;51.106;7.028;2022-11-15T14:30:00;20.80;95.40
18337;DHT22;9294;51.106;7.028;2022-11-15T14:32:28;20.90;95.30
18337;DHT22;9294;51.106;7.028;2022-11-15T14:34:58;20.90;95.40
18337;DHT22;9294;51.106;7.028;2022-11-15T14:37:27;21.00;95.40
18337;DHT22;9294;51.106;7.028;2022-11-15T14:39:54;20.90;95.50
18337;DHT22;9294;51.106;7.028;2022-11-15T14:42:22;20.80;95.70
18337;DHT22;9294;51.106;7.028;2022-11-15T14:44:49;20.80;95.90
18337;DHT22;9294;51.106;7.028;2022-11-15T14:47:17;20.80;96.00
18337;DHT22;9294;51.106;7.028;2022-11-15T14:49:44;20.80;95.90
18337;DHT22;9294;51.106;7.028;2022-11-15T14:52:23;20.90;95.70
18337;DHT22;9294;51.106;7.028;2022-11-15T14:54:50;21.00;95.70
18337;DHT22;9294;51.106;7.028;2022-11-15T14:57:17;21.00;95.70
18337;DHT22;9294;51.106;7.028;2022-11-15T14:59:43;21.00;95.60
18337;DHT22;9294;51.106;7.028;2022-11-15T15:02:16;21.00;95.70
18337;DHT22;9294;51.106;7.028;2022-11-15T15:04:43;21.10;95.60
18337;DHT22;9294;51.106;7.028;2022-11-15T15:07:09;21.00;95.70
18337;DHT22;9294;51.106;7.028;2022-11-15T15:09:37;21.00;95.70
18337;DHT22;9294;51.106;7.028;2022-11-15T15:12:05;21.10;95.70
18337;DHT22;9294;51.106;7.028;2022-11-15T15:14:32;20.80;95.90
18337;DHT22;9294;51.106;7.028;2022-11-15T15:16:59;20.80;96.20
18337;DHT22;9294;51.106;7.028;2022-11-15T15:19:26;20.80;96.10
18337;DHT22;9294;51.106;7.028;2022-11-15T15:21:52;21.00;96.10
18337;DHT22;9294;51.106;7.028;2022-11-15T15:24:19;20.80;96.30
18337;DHT22;9294;51.106;7.028;2022-11-15T15:26:47;20.60;96.50
18337;DHT22;9294;51.106;7.028;2022-11-15T15:29:13;20.60;96.90
18337;DHT22;9294;51.106;7.028;2022-11-15T15:31:40;20.40;97.10
18337;DHT22;9294;51.106;7.028;2022-11-15T15:34:07;20.40;97.40
18337;DHT22;9294;51.106;7.028;2022-11-15T15:36:34;20.40;97.50
18337;DHT22;9294;51.106;7.028;2022-11-15T15:39:00;20.40;97.60
18337;DHT22;9294;51.106;7.028;2022-11-15T15:41:27;20.30;97.40
18337;DHT22;9294;51.106;7.028;2022-11-15T15:43:55;20.40;97.30
18337;DHT22;9294;51.106;7.028;2022-11-15T15:46:22;20.40;97.80
18337;DHT22;9294;51.106;7.028;2022-11-15T15:48:48;20.30;98.10
18337;DHT22;9294;51.106;7.028;2022-11-15T15:51:15;20.40;97.90
18337;DHT22;9294;51.106;7.028;2022-11-15T15:53:42;20.60;97.30
18337;DHT22;9294;51.106;7.028;2022-11-15T15:56:08;20.70;96.90
18337;DHT22;9294;51.106;7.028;2022-11-15T15:58:35;20.80;96.80
18337;DHT22;9294;51.106;7.028;2022-11-15T16:01:03;20.80;96.50
18337;DHT22;9294;51.106;7.028;2022-11-15T16:03:30;20.90;96.40
18337;DHT22;9294;51.106;7.028;2022-11-15T16:05:57;20.90;96.30
18337;DHT22;9294;51.106;7.028;2022-11-15T16:08:24;21.00;96.30
18337;DHT22;9294;51.106;7.028;2022-11-15T16:10:51;20.80;95.70
18337;DHT22;9294;51.106;7.028;2022-11-15T16:13:18;20.60;95.50
18337;DHT22;9294;51.106;7.028;2022-11-15T16:15:47;20.60;97.10
18337;DHT22;9294;51.106;7.028;2022-11-15T16:18:17;20.40;97.20
18337;DHT22;9294;51.106;7.028;2022-11-15T16:20:44;20.30;97.50
18337;DHT22;9294;51.106;7.028;2022-11-15T16:23:14;20.30;97.50
18337;DHT22;9294;51.106;7.028;2022-11-15T16:25:43;20.50;97.20
18337;DHT22;9294;51.106;7.028;2022-11-15T16:28:19;20.60;96.90
18337;DHT22;9294;51.106;7.028;2022-11-15T16:30:46;20.80;96.60
18337;DHT22;9294;51.106;7.028;2022-11-15T16:33:13;20.90;96.20
18337;DHT22;9294;51.106;7.028;2022-11-15T16:35:41;21.00;96.10
18337;DHT22;9294;51.106;7.028;2022-11-15T16:38:13;21.20;95.90
18337;DHT22;9294;51.106;7.028;2022-11-15T16:40:41;21.30;95.80
18337;DHT22;9294;51.106;7.028;2022-11-15T16:43:08;21.40;95.50
18337;DHT22;9294;51.106;7.028;2022-11-15T16:45:35;21.40;95.40
18337;DHT22;9294;51.106;7.028;2022-11-15T16:48:02;21.40;95.50
18337;DHT22;9294;51.106;7.028;2022-11-15T16:50:31;21.30;95.50
18337;DHT22;9294;51.106;7.028;2022-11-15T16:53:00;21.20;95.60
18337;DHT22;9294;51.106;7.028;2022-11-15T16:55:28;21.20;95.90
18337;DHT22;9294;51.106;7.028;2022-11-15T16:57:55;21.10;96.00
18337;DHT22;9294;51.106;7.028;2022-11-15T17:00:24;21.10;96.00
18337;DHT22;9294;51.106;7.028;2022-11-15T17:02:51;21.20;95.90
18337;DHT22;9294;51.106;7.028;2022-11-15T17:05:19;21.20;95.90
18337;DHT22;9294;51.106;7.028;2022-11-15T17:07:47;21.40;95.80
18337;DHT22;9294;51.106;7.028;2022-11-15T17:10:16;21.30;95.90
18337;DHT22;9294;51.106;7.028;2022-11-15T17:12:43;21.30;96.10
18337;DHT22;9294;51.106;7.028;2022-11-15T17:15:11;21.20;96.30
18337;DHT22;9294;51.106;7.028;2022-11-15T17:17:37;21.10;96.50
18337;DHT22;9294;51.106;7.028;2022-11-15T17:20:05;21.00;96.60